sensor_id;sensor_type;location;lat;lon;timestamp;temperature;humidity
4183;DHT22;2105;52.300;9.182;2022-09-29T00:00:43;9.00;99.90
4183;DHT22;2105;52.300;9.182;2022-09-29T00:03:10;9.10;99.90
4183;DHT22;2105;52.300;9.182;2022-09-29T00:05:37;9.10;99.90
4183;DHT22;2105;52.300;9.182;2022-09-29T00:08:05;9.10;99.90
4183;DHT22;2105;52.300;9.182;2022-09-29T00:10:32;9.00;99.90
4183;DHT22;2105;52.300;9.182;2022-09-29T00:12:58;9.00;99.90
4183;DHT22;2105;52.300;9.182;2022-09-29T00:15:25;9.00;99.90
4183;DHT22;2105;52.300;9.182;2022-09-29T00:17:52;9.00;99.90
4183;DHT22;2105;52.300;9.182;2022-09-29T00:20:19;9.00;99.90
4183;DHT22;2105;52.300;9.182;2022-09-29T00:22:49;9.00;99.90
4183;DHT22;2105;52.300;9.182;2022-09-29T00:25:17;9.00;99.90
4183;DHT22;2105;52.300;9.182;2022-09-29T00:27:44;9.00;99.90
4183;DHT22;2105;52.300;9.182;2022-09-29T00:30:11;9.00;99.90
4183;DHT22;2105;52.300;9.182;2022-09-29T00:32:38;9.00;99.90
4183;DHT22;2105;52.300;9.182;2022-09-29T00:35:06;9.00;99.90
4183;DHT22;2105;52.300;9.182;2022-09-29T00:37:33;9.00;99.90
4183;DHT22;2105;52.300;9.182;2022-09-29T00:39:59;9.00;99.90
4183;DHT22;2105;52.300;9.182;2022-09-29T00:42:28;8.90;99.90
4183;DHT22;2105;52.300;9.182;2022-09-29T00:45:04;8.90;99.90
4183;DHT22;2105;52.300;9.182;2022-09-29T00:47:35;8.90;99.90
4183;DHT22;2105;52.300;9.182;2022-09-29T00:50:08;8.90;99.90
4183;DHT22;2105;52.300;9.182;2022-09-29T00:52:42;8.90;99.90
4183;DHT22;2105;52.300;9.182;2022-09-29T00:55:15;8.90;99.90
4183;DHT22;2105;52.300;9.182;2022-09-29T00:57:51;8.90;99.90
4183;DHT22;2105;52.300;9.182;2022-09-29T01:00:19;8.90;99.90
4183;DHT22;2105;52.300;9.182;2022-09-29T01:02:49;8.90;99.90
4183;DHT22;2105;52.300;9.182;2022-09-29T01:05:19;9.00;99.90
4183;DHT22;2105;52.300;9.182;2022-09-29T01:07:47;9.00;99.90
4183;DHT22;2105;52.300;9.182;2022-09-29T01:10:16;9.00;99.90
4183;DHT22;2105;52.300;9.182;2022-09-29T01:12:46;9.10;99.90
4183;DHT22;2105;52.300;9.182;2022-09-29T01:15:17;9.10;99.90
4183;DHT22;2105;52.300;9.182;2022-09-29T01:17:45;9.10;99.90
4183;DHT22;2105;52.300;9.182;2022-09-29T01:20:15;9.20;99.90
4183;DHT22;2105;52.300;9.182;2022-09-29T01:23:20;9.20;99.90
4183;DHT22;2105;52.300;9.182;2022-09-29T01:26:18;9.20;99.90
4183;DHT22;2105;52.300;9.182;2022-09-29T01:29:19;9.30;99.90
4183;DHT22;2105;52.300;9.182;2022-09-29T01:31:55;9.30;99.90
4183;DHT22;2105;52.300;9.182;2022-09-29T01:34:32;9.30;99.90
4183;DHT22;2105;52.300;9.182;2022-09-29T01:37:09;9.20;99.90
4183;DHT22;2105;52.300;9.182;2022-09-29T01:39:44;9.30;99.90
4183;DHT22;2105;52.300;9.182;2022-09-29T01:42:16;9.20;99.90
4183;DHT22;2105;52.300;9.182;2022-09-29T01:44:45;9.20;99.90
4183;DHT22;2105;52.300;9.182;2022-09-29T01:47:18;9.20;99.90
4183;DHT22;2105;52.300;9.182;2022-09-29T01:49:51;9.20;99.90
4183;DHT22;2105;52.300;9.182;2022-09-29T01:52:21;9.20;99.90
4183;DHT22;2105;52.300;9.182;2022-09-29T01:54:51;9.20;99.90
4183;DHT22;2105;52.300;9.182;2022-09-29T01:57:23;9.20;99.90
4183;DHT22;2105;52.300;9.182;2022-09-29T01:59:54;9.20;99.90
4183;DHT22;2105;52.300;9.182;2022-09-29T02:02:28;9.10;99.90
4183;DHT22;2105;52.300;9.182;2022-09-29T02:04:58;9.10;99.90
4183;DHT22;2105;52.300;9.182;2022-09-29T02:07:31;9.10;99.90
4183;DHT22;2105;52.300;9.182;2022-09-29T02:10:03;9.10;99.90
4183;DHT22;2105;52.300;9.182;2022-09-29T02:12:33;9.10;99.90
4183;DHT22;2105;52.300;9.182;2022-09-29T02:15:02;9.00;99.90
4183;DHT22;2105;52.300;9.182;2022-09-29T02:17:35;9.00;99.90
4183;DHT22;2105;52.300;9.182;2022-09-29T02:20:05;9.00;99.90
4183;DHT22;2105;52.300;9.182;2022-09-29T02:22:34;9.00;99.90
4183;DHT22;2105;52.300;9.182;2022-09-29T02:25:00;9.00;99.90
4183;DHT22;2105;52.300;9.182;2022-09-29T02:27:28;9.00;99.90
4183;DHT22;2105;52.300;9.182;2022-09-29T02:29:56;9.00;99.90
4183;DHT22;2105;52.300;9.182;2022-09-29T02:32:23;9.00;99.90
4183;DHT22;2105;52.300;9.182;2022-09-29T02:34:53;9.00;99.90
4183;DHT22;2105;52.300;9.182;2022-09-29T02:37:37;9.00;99.90
4183;DHT22;2105;52.300;9.182;2022-09-29T02:40:16;8.90;99.90
4183;DHT22;2105;52.300;9.182;2022-09-29T02:42:55;8.90;99.90
4183;DHT22;2105;52.300;9.182;2022-09-29T02:45:32;9.00;99.90
4183;DHT22;2105;52.300;9.182;2022-09-29T02:48:18;8.90;99.90
4183;DHT22;2105;52.300;9.182;2022-09-29T02:51:11;8.80;99.90
4183;DHT22;2105;52.300;9.182;2022-09-29T02:53:51;8.90;99.90
4183;DHT22;2105;52.300;9.182;2022-09-29T02:56:25;8.90;99.90
4183;DHT22;2105;52.300;9.182;2022-09-29T02:58:58;8.90;99.90
4183;DHT22;2105;52.300;9.182;2022-09-29T03:01:28;8.90;99.90
4183;DHT22;2105;52.300;9.182;2022-09-29T03:03:55;8.80;99.90
4183;DHT22;2105;52.300;9.182;2022-09-29T03:06:23;8.80;99.90
4183;DHT22;2105;52.300;9.182;2022-09-29T03:08:50;8.70;99.90
4183;DHT22;2105;52.300;9.182;2022-09-29T03:11:17;8.60;99.90
4183;DHT22;2105;52.300;9.182;2022-09-29T03:13:44;8.60;99.90
4183;DHT22;2105;52.300;9.182;2022-09-29T03:16:10;8.60;99.90
4183;DHT22;2105;52.300;9.182;2022-09-29T03:18:37;8.60;99.90
4183;DHT22;2105;52.300;9.182;2022-09-29T03:21:04;8.60;99.90
4183;DHT22;2105;52.300;9.182;2022-09-29T03:23:32;8.60;99.90
4183;DHT22;2105;52.300;9.182;2022-09-29T03:25:59;8.70;99.90
4183;DHT22;2105;52.300;9.182;2022-09-29T03:28:25;8.80;99.90
4183;DHT22;2105;52.300;9.182;2022-09-29T03:30:52;8.80;99.90
4183;DHT22;2105;52.300;9.182;2022-09-29T03:33:20;8.80;99.90
4183;DHT22;2105;52.300;9.182;2022-09-29T03:35:46;8.70;99.90
4183;DHT22;2105;52.300;9.182;2022-09-29T03:38:13;8.70;99.90
4183;DHT22;2105;52.300;9.182;2022-09-29T03:40:41;8.70;99.90
4183;DHT22;2105;52.300;9.182;2022-09-29T03:43:08;8.70;99.90
4183;DHT22;2105;52.300;9.182;2022-09-29T03:45:35;8.70;99.90
4183;DHT22;2105;52.300;9.182;2022-09-29T03:48:01;8.60;99.90
4183;DHT22;2105;52.300;9.182;2022-09-29T03:50:28;8.60;99.90
4183;DHT22;2105;52.300;9.182;2022-09-29T03:52:55;8.50;99.90
4183;DHT22;2105;52.300;9.182;2022-09-29T03:55:22;8.50;99.90
4183;DHT22;2105;52.300;9.182;2022-09-29T03:57:50;8.50;99.90
4183;DHT22;2105;52.300;9.182;2022-09-29T04:00:17;8.50;99.90
4183;DHT22;2105;52.300;9.182;2022-09-29T04:02:44;8.50;99.90
4183;DHT22;2105;52.300;9.182;2022-09-29T04:05:11;8.50;99.90
4183;DHT22;2105;52.300;9.182;2022-09-29T04:07:37;8.50;99.90
4183;DHT22;2105;52.300;9.182;2022-09-29T04:10:05;8.40;99.90
4183;DHT22;2105;52.300;9.182;2022-09-29T04:12:31;8.40;99.90
4183;DHT22;2105;52.300;9.182;2022-09-29T04:14:59;8.40;99.90
4183;DHT22;2105;52.300;9.182;2022-09-29T04:17:26;8.40;99.90
4183;DHT22;2105;52.300;9.182;2022-09-29T04:19:53;8.30;99.90
4183;DHT22;2105;52.300;9.182;2022-09-29T04:22:20;8.30;99.90
4183;DHT22;2105;52.300;9.182;2022-09-29T04:24:46;8.20;99.90
4183;DHT22;2105;52.300;9.182;2022-09-29T04:27:13;8.20;99.90
4183;DHT22;2105;52.300;9.182;2022-09-29T04:29:40;8.10;99.90
4183;DHT22;2105;52.300;9.182;2022-09-29T04:32:08;8.00;99.90
4183;DHT22;2105;52.300;9.182;2022-09-29T04:34:35;7.80;99.90
4183;DHT22;2105;52.300;9.182;2022-09-29T04:37:02;7.80;99.90
4183;DHT22;2105;52.300;9.182;2022-09-29T04:39:29;7.80;99.90
4183;DHT22;2105;52.300;9.182;2022-09-29T04:41:55;7.80;99.90
4183;DHT22;2105;52.300;9.182;2022-09-29T04:44:22;7.80;99.90
4183;DHT22;2105;52.300;9.182;2022-09-29T04:46:50;7.70;99.90
4183;DHT22;2105;52.300;9.182;2022-09-29T04:49:18;7.60;99.90
4183;DHT22;2105;52.300;9.182;2022-09-29T04:51:45;7.60;99.90
4183;DHT22;2105;52.300;9.182;2022-09-29T04:54:12;7.50;99.90
4183;DHT22;2105;52.300;9.182;2022-09-29T04:56:39;7.50;99.90
4183;DHT22;2105;52.300;9.182;2022-09-29T04:59:06;7.50;99.90
4183;DHT22;2105;52.300;9.182;2022-09-29T05:01:34;7.50;99.90
4183;DHT22;2105;52.300;9.182;2022-09-29T05:04:01;7.40;99.90
4183;DHT22;2105;52.300;9.182;2022-09-29T05:06:29;7.40;99.90
4183;DHT22;2105;52.300;9.182;2022-09-29T05:08:55;7.20;99.90
4183;DHT22;2105;52.300;9.182;2022-09-29T05:11:22;7.20;99.90
4183;DHT22;2105;52.300;9.182;2022-09-29T05:13:49;7.20;99.90
4183;DHT22;2105;52.300;9.182;2022-09-29T05:16:16;7.20;99.90
4183;DHT22;2105;52.300;9.182;2022-09-29T05:18:42;7.30;99.90
4183;DHT22;2105;52.300;9.182;2022-09-29T05:21:09;7.30;99.90
4183;DHT22;2105;52.300;9.182;2022-09-29T05:23:37;7.30;99.90
4183;DHT22;2105;52.300;9.182;2022-09-29T05:26:05;7.20;99.90
4183;DHT22;2105;52.300;9.182;2022-09-29T05:28:33;7.20;99.90
4183;DHT22;2105;52.300;9.182;2022-09-29T05:31:01;7.30;99.90
4183;DHT22;2105;52.300;9.182;2022-09-29T05:33:28;7.20;99.90
4183;DHT22;2105;52.300;9.182;2022-09-29T05:35:55;7.20;99.90
4183;DHT22;2105;52.300;9.182;2022-09-29T05:38:22;7.20;99.90
4183;DHT22;2105;52.300;9.182;2022-09-29T05:40:50;7.20;99.90
4183;DHT22;2105;52.300;9.182;2022-09-29T05:43:17;7.20;99.90
4183;DHT22;2105;52.300;9.182;2022-09-29T05:45:44;7.10;99.90
4183;DHT22;2105;52.300;9.182;2022-09-29T05:48:11;7.10;99.90
4183;DHT22;2105;52.300;9.182;2022-09-29T05:50:38;7.20;99.90
4183;DHT22;2105;52.300;9.182;2022-09-29T05:53:10;7.30;99.90
4183;DHT22;2105;52.300;9.182;2022-09-29T05:55:38;7.30;99.90
4183;DHT22;2105;52.300;9.182;2022-09-29T05:58:06;7.30;99.90
4183;DHT22;2105;52.300;9.182;2022-09-29T06:00:33;7.30;99.90
4183;DHT22;2105;52.300;9.182;2022-09-29T06:03:00;7.40;99.90
4183;DHT22;2105;52.300;9.182;2022-09-29T06:05:28;7.40;99.90
4183;DHT22;2105;52.300;9.182;2022-09-29T06:07:55;7.50;99.90
4183;DHT22;2105;52.300;9.182;2022-09-29T06:10:22;7.50;99.90
4183;DHT22;2105;52.300;9.182;2022-09-29T06:12:49;7.50;99.90
4183;DHT22;2105;52.300;9.182;2022-09-29T06:15:17;7.70;99.90
4183;DHT22;2105;52.300;9.182;2022-09-29T06:17:44;7.80;99.90
4183;DHT22;2105;52.300;9.182;2022-09-29T06:20:11;7.90;99.90
4183;DHT22;2105;52.300;9.182;2022-09-29T06:22:37;8.00;99.90
4183;DHT22;2105;52.300;9.182;2022-09-29T06:25:05;8.10;99.90
4183;DHT22;2105;52.300;9.182;2022-09-29T06:27:32;8.30;99.90
4183;DHT22;2105;52.300;9.182;2022-09-29T06:29:58;8.40;99.90
4183;DHT22;2105;52.300;9.182;2022-09-29T06:32:26;8.50;99.90
4183;DHT22;2105;52.300;9.182;2022-09-29T06:34:53;8.60;99.90
4183;DHT22;2105;52.300;9.182;2022-09-29T06:37:41;8.60;99.90
4183;DHT22;2105;52.300;9.182;2022-09-29T06:40:11;8.70;99.90
4183;DHT22;2105;52.300;9.182;2022-09-29T06:42:38;8.70;99.90
4183;DHT22;2105;52.300;9.182;2022-09-29T06:45:06;8.70;99.90
4183;DHT22;2105;52.300;9.182;2022-09-29T06:47:35;8.80;99.90
4183;DHT22;2105;52.300;9.182;2022-09-29T06:50:02;8.80;99.90
4183;DHT22;2105;52.300;9.182;2022-09-29T06:52:29;8.80;99.90
4183;DHT22;2105;52.300;9.182;2022-09-29T06:54:56;8.90;99.90
4183;DHT22;2105;52.300;9.182;2022-09-29T06:57:22;9.00;99.90
4183;DHT22;2105;52.300;9.182;2022-09-29T06:59:50;9.10;99.90
4183;DHT22;2105;52.300;9.182;2022-09-29T07:02:17;9.10;99.90
4183;DHT22;2105;52.300;9.182;2022-09-29T07:04:45;9.20;99.90
4183;DHT22;2105;52.300;9.182;2022-09-29T07:07:13;9.20;99.90
4183;DHT22;2105;52.300;9.182;2022-09-29T07:09:40;9.50;99.90
4183;DHT22;2105;52.300;9.182;2022-09-29T07:12:07;10.00;99.90
4183;DHT22;2105;52.300;9.182;2022-09-29T07:14:36;10.20;99.90
4183;DHT22;2105;52.300;9.182;2022-09-29T07:17:02;10.30;1.00
4183;DHT22;2105;52.300;9.182;2022-09-29T07:19:30;10.30;1.00
4183;DHT22;2105;52.300;9.182;2022-09-29T07:21:58;10.30;1.00
4183;DHT22;2105;52.300;9.182;2022-09-29T07:24:25;10.30;1.00
4183;DHT22;2105;52.300;9.182;2022-09-29T07:26:51;10.30;1.00
4183;DHT22;2105;52.300;9.182;2022-09-29T07:29:18;10.20;1.00
4183;DHT22;2105;52.300;9.182;2022-09-29T07:31:45;10.50;1.00
4183;DHT22;2105;52.300;9.182;2022-09-29T07:34:12;11.50;1.00
4183;DHT22;2105;52.300;9.182;2022-09-29T07:36:39;11.90;99.90
4183;DHT22;2105;52.300;9.182;2022-09-29T07:39:07;12.20;1.00
4183;DHT22;2105;52.300;9.182;2022-09-29T07:41:34;12.90;1.00
4183;DHT22;2105;52.300;9.182;2022-09-29T07:44:01;12.60;1.00
4183;DHT22;2105;52.300;9.182;2022-09-29T07:46:28;11.90;99.90
4183;DHT22;2105;52.300;9.182;2022-09-29T07:48:57;11.30;99.90
4183;DHT22;2105;52.300;9.182;2022-09-29T07:51:23;11.10;1.00
4183;DHT22;2105;52.300;9.182;2022-09-29T07:53:50;10.80;99.90
4183;DHT22;2105;52.300;9.182;2022-09-29T07:56:20;10.70;99.90
4183;DHT22;2105;52.300;9.182;2022-09-29T07:58:48;10.80;1.00
4183;DHT22;2105;52.300;9.182;2022-09-29T08:01:16;10.90;99.90
4183;DHT22;2105;52.300;9.182;2022-09-29T08:03:44;11.30;1.00
4183;DHT22;2105;52.300;9.182;2022-09-29T08:06:12;12.80;1.00
4183;DHT22;2105;52.300;9.182;2022-09-29T08:08:40;13.90;99.90
4183;DHT22;2105;52.300;9.182;2022-09-29T08:11:08;14.60;1.00
4183;DHT22;2105;52.300;9.182;2022-09-29T08:13:37;15.10;99.90
4183;DHT22;2105;52.300;9.182;2022-09-29T08:16:06;14.80;99.90
4183;DHT22;2105;52.300;9.182;2022-09-29T08:18:34;14.40;22.30
4183;DHT22;2105;52.300;9.182;2022-09-29T08:21:01;14.00;99.90
4183;DHT22;2105;52.300;9.182;2022-09-29T08:23:28;13.90;1.00
4183;DHT22;2105;52.300;9.182;2022-09-29T08:26:00;13.90;1.00
4183;DHT22;2105;52.300;9.182;2022-09-29T08:28:27;13.70;1.00
4183;DHT22;2105;52.300;9.182;2022-09-29T08:30:56;13.70;99.90
4183;DHT22;2105;52.300;9.182;2022-09-29T08:33:23;13.60;1.00
4183;DHT22;2105;52.300;9.182;2022-09-29T08:35:55;13.40;1.00
4183;DHT22;2105;52.300;9.182;2022-09-29T08:38:22;13.00;99.90
4183;DHT22;2105;52.300;9.182;2022-09-29T08:40:49;12.80;1.00
4183;DHT22;2105;52.300;9.182;2022-09-29T08:43:21;12.80;1.00
4183;DHT22;2105;52.300;9.182;2022-09-29T08:45:56;12.70;1.00
4183;DHT22;2105;52.300;9.182;2022-09-29T08:48:27;12.60;99.90
4183;DHT22;2105;52.300;9.182;2022-09-29T08:50:57;12.80;1.00
4183;DHT22;2105;52.300;9.182;2022-09-29T08:53:26;12.80;99.90
4183;DHT22;2105;52.300;9.182;2022-09-29T08:55:56;12.90;1.00
4183;DHT22;2105;52.300;9.182;2022-09-29T08:58:26;13.10;1.00
4183;DHT22;2105;52.300;9.182;2022-09-29T09:01:06;13.30;99.90
4183;DHT22;2105;52.300;9.182;2022-09-29T09:04:02;13.60;1.00
4183;DHT22;2105;52.300;9.182;2022-09-29T09:06:44;13.70;1.00
4183;DHT22;2105;52.300;9.182;2022-09-29T09:09:28;13.70;1.00
4183;DHT22;2105;52.300;9.182;2022-09-29T09:12:12;13.80;1.00
4183;DHT22;2105;52.300;9.182;2022-09-29T09:14:56;14.00;1.00
4183;DHT22;2105;52.300;9.182;2022-09-29T09:17:38;14.10;99.90
4183;DHT22;2105;52.300;9.182;2022-09-29T09:20:17;14.20;1.00
4183;DHT22;2105;52.300;9.182;2022-09-29T09:22:54;14.20;99.90
4183;DHT22;2105;52.300;9.182;2022-09-29T09:25:27;14.30;1.00
4183;DHT22;2105;52.300;9.182;2022-09-29T09:28:03;14.30;1.00
4183;DHT22;2105;52.300;9.182;2022-09-29T09:30:34;14.40;99.90
4183;DHT22;2105;52.300;9.182;2022-09-29T09:35:37;14.70;99.90
4183;DHT22;2105;52.300;9.182;2022-09-29T09:38:14;14.70;99.90
4183;DHT22;2105;52.300;9.182;2022-09-29T09:40:44;14.80;74.90
4183;DHT22;2105;52.300;9.182;2022-09-29T09:43:13;14.90;1.00
4183;DHT22;2105;52.300;9.182;2022-09-29T09:45:47;15.00;1.00
4183;DHT22;2105;52.300;9.182;2022-09-29T09:48:19;15.00;1.00
4183;DHT22;2105;52.300;9.182;2022-09-29T09:50:48;15.20;1.00
4183;DHT22;2105;52.300;9.182;2022-09-29T09:53:20;15.00;1.00
4183;DHT22;2105;52.300;9.182;2022-09-29T09:55:52;14.90;1.00
4183;DHT22;2105;52.300;9.182;2022-09-29T09:58:48;15.00;1.00
4183;DHT22;2105;52.300;9.182;2022-09-29T10:01:21;15.20;1.00
4183;DHT22;2105;52.300;9.182;2022-09-29T10:03:47;15.50;1.00
4183;DHT22;2105;52.300;9.182;2022-09-29T10:06:15;15.40;1.00
4183;DHT22;2105;52.300;9.182;2022-09-29T10:08:42;15.30;99.90
4183;DHT22;2105;52.300;9.182;2022-09-29T10:11:20;15.20;99.90
4183;DHT22;2105;52.300;9.182;2022-09-29T10:13:50;15.30;1.00
4183;DHT22;2105;52.300;9.182;2022-09-29T10:16:24;15.50;1.00
4183;DHT22;2105;52.300;9.182;2022-09-29T10:18:53;15.50;99.90
4183;DHT22;2105;52.300;9.182;2022-09-29T10:21:33;15.60;99.90
4183;DHT22;2105;52.300;9.182;2022-09-29T10:24:01;15.90;1.00
4183;DHT22;2105;52.300;9.182;2022-09-29T10:26:32;16.10;99.90
4183;DHT22;2105;52.300;9.182;2022-09-29T10:29:01;16.20;99.90
4183;DHT22;2105;52.300;9.182;2022-09-29T10:31:30;16.20;99.90
4183;DHT22;2105;52.300;9.182;2022-09-29T10:34:00;15.70;99.90
4183;DHT22;2105;52.300;9.182;2022-09-29T10:36:33;15.30;99.90
4183;DHT22;2105;52.300;9.182;2022-09-29T10:39:30;14.90;1.00
4183;DHT22;2105;52.300;9.182;2022-09-29T10:41:57;15.10;1.00
4183;DHT22;2105;52.300;9.182;2022-09-29T10:44:30;15.60;99.90
4183;DHT22;2105;52.300;9.182;2022-09-29T10:46:57;16.00;99.90
4183;DHT22;2105;52.300;9.182;2022-09-29T10:49:25;16.30;99.90
4183;DHT22;2105;52.300;9.182;2022-09-29T10:51:58;16.40;99.90
4183;DHT22;2105;52.300;9.182;2022-09-29T10:54:27;16.30;99.90
4183;DHT22;2105;52.300;9.182;2022-09-29T10:56:56;16.20;1.00
4183;DHT22;2105;52.300;9.182;2022-09-29T10:59:24;15.70;99.90
4183;DHT22;2105;52.300;9.182;2022-09-29T11:01:53;15.30;99.90
4183;DHT22;2105;52.300;9.182;2022-09-29T11:04:23;15.20;99.90
4183;DHT22;2105;52.300;9.182;2022-09-29T11:06:52;15.30;1.00
4183;DHT22;2105;52.300;9.182;2022-09-29T11:09:34;15.60;99.90
4183;DHT22;2105;52.300;9.182;2022-09-29T11:12:01;16.00;99.90
4183;DHT22;2105;52.300;9.182;2022-09-29T11:14:30;16.30;99.90
4183;DHT22;2105;52.300;9.182;2022-09-29T11:16:58;16.40;99.90
4183;DHT22;2105;52.300;9.182;2022-09-29T11:19:26;16.30;99.90
4183;DHT22;2105;52.300;9.182;2022-09-29T11:22:15;16.60;99.90
4183;DHT22;2105;52.300;9.182;2022-09-29T11:27:49;17.00;99.90
4183;DHT22;2105;52.300;9.182;2022-09-29T11:30:20;16.90;99.20
4183;DHT22;2105;52.300;9.182;2022-09-29T11:33:07;17.00;98.80
4183;DHT22;2105;52.300;9.182;2022-09-29T11:35:53;17.20;99.90
4183;DHT22;2105;52.300;9.182;2022-09-29T11:41:31;17.50;23.80
4183;DHT22;2105;52.300;9.182;2022-09-29T11:44:16;17.60;15.10
4183;DHT22;2105;52.300;9.182;2022-09-29T11:46:57;18.00;49.40
4183;DHT22;2105;52.300;9.182;2022-09-29T11:49:38;18.20;40.70
4183;DHT22;2105;52.300;9.182;2022-09-29T11:52:20;17.90;9.00
4183;DHT22;2105;52.300;9.182;2022-09-29T11:55:13;17.30;36.40
4183;DHT22;2105;52.300;9.182;2022-09-29T11:57:52;16.70;45.60
4183;DHT22;2105;52.300;9.182;2022-09-29T12:00:30;16.40;96.00
4183;DHT22;2105;52.300;9.182;2022-09-29T12:03:18;16.30;99.90
4183;DHT22;2105;52.300;9.182;2022-09-29T12:05:56;16.70;99.90
4183;DHT22;2105;52.300;9.182;2022-09-29T12:08:41;17.00;83.80
4183;DHT22;2105;52.300;9.182;2022-09-29T12:11:15;17.30;24.40
4183;DHT22;2105;52.300;9.182;2022-09-29T12:13:52;17.40;1.00
4183;DHT22;2105;52.300;9.182;2022-09-29T12:16:23;16.90;1.00
4183;DHT22;2105;52.300;9.182;2022-09-29T12:18:55;16.70;11.00
4183;DHT22;2105;52.300;9.182;2022-09-29T12:21:27;16.50;53.60
4183;DHT22;2105;52.300;9.182;2022-09-29T12:23:55;16.20;99.90
4183;DHT22;2105;52.300;9.182;2022-09-29T12:26:23;16.00;99.90
4183;DHT22;2105;52.300;9.182;2022-09-29T12:28:55;15.70;99.90
4183;DHT22;2105;52.300;9.182;2022-09-29T12:31:27;15.40;99.90
4183;DHT22;2105;52.300;9.182;2022-09-29T12:33:58;15.30;99.90
4183;DHT22;2105;52.300;9.182;2022-09-29T12:36:33;15.30;99.90
4183;DHT22;2105;52.300;9.182;2022-09-29T12:39:21;15.60;99.90
4183;DHT22;2105;52.300;9.182;2022-09-29T12:41:53;16.30;99.90
4183;DHT22;2105;52.300;9.182;2022-09-29T12:44:29;16.40;99.90
4183;DHT22;2105;52.300;9.182;2022-09-29T12:47:02;16.20;99.90
4183;DHT22;2105;52.300;9.182;2022-09-29T12:49:35;16.30;76.60
4183;DHT22;2105;52.300;9.182;2022-09-29T12:52:11;16.40;30.00
4183;DHT22;2105;52.300;9.182;2022-09-29T12:54:45;15.90;73.70
4183;DHT22;2105;52.300;9.182;2022-09-29T12:57:15;15.30;99.90
4183;DHT22;2105;52.300;9.182;2022-09-29T12:59:53;14.90;99.90
4183;DHT22;2105;52.300;9.182;2022-09-29T13:02:52;14.60;99.90
4183;DHT22;2105;52.300;9.182;2022-09-29T13:05:46;14.70;99.90
4183;DHT22;2105;52.300;9.182;2022-09-29T13:08:36;14.90;99.90
4183;DHT22;2105;52.300;9.182;2022-09-29T13:11:19;14.90;99.90
4183;DHT22;2105;52.300;9.182;2022-09-29T13:14:02;15.20;99.90
4183;DHT22;2105;52.300;9.182;2022-09-29T13:16:45;15.50;99.90
4183;DHT22;2105;52.300;9.182;2022-09-29T13:19:40;16.00;99.90
4183;DHT22;2105;52.300;9.182;2022-09-29T13:22:26;16.40;99.90
4183;DHT22;2105;52.300;9.182;2022-09-29T13:25:03;16.90;37.20
4183;DHT22;2105;52.300;9.182;2022-09-29T13:27:35;17.30;60.90
4183;DHT22;2105;52.300;9.182;2022-09-29T13:30:07;17.30;27.40
4183;DHT22;2105;52.300;9.182;2022-09-29T13:32:42;17.50;6.70
4183;DHT22;2105;52.300;9.182;2022-09-29T13:35:13;17.20;10.60
4183;DHT22;2105;52.300;9.182;2022-09-29T13:37:46;16.90;13.50
4183;DHT22;2105;52.300;9.182;2022-09-29T13:40:18;16.60;50.30
4183;DHT22;2105;52.300;9.182;2022-09-29T13:42:46;16.20;99.90
4183;DHT22;2105;52.300;9.182;2022-09-29T13:45:16;16.00;99.90
4183;DHT22;2105;52.300;9.182;2022-09-29T13:48:41;15.80;99.90
4183;DHT22;2105;52.300;9.182;2022-09-29T13:54:28;15.50;99.90
4183;DHT22;2105;52.300;9.182;2022-09-29T13:57:04;15.50;99.90
4183;DHT22;2105;52.300;9.182;2022-09-29T13:59:31;15.60;99.90
4183;DHT22;2105;52.300;9.182;2022-09-29T14:01:58;15.90;99.90
4183;DHT22;2105;52.300;9.182;2022-09-29T14:04:47;16.00;99.90
4183;DHT22;2105;52.300;9.182;2022-09-29T14:07:35;16.40;99.90
4183;DHT22;2105;52.300;9.182;2022-09-29T14:10:06;16.70;73.70
4183;DHT22;2105;52.300;9.182;2022-09-29T14:12:40;17.00;64.50
4183;DHT22;2105;52.300;9.182;2022-09-29T14:15:11;17.30;5.40
4183;DHT22;2105;52.300;9.182;2022-09-29T14:17:43;17.40;2.30
4183;DHT22;2105;52.300;9.182;2022-09-29T14:20:16;17.30;1.30
4183;DHT22;2105;52.300;9.182;2022-09-29T14:22:54;17.30;1.00
4183;DHT22;2105;52.300;9.182;2022-09-29T14:25:31;17.20;1.00
4183;DHT22;2105;52.300;9.182;2022-09-29T14:28:03;17.20;3.00
4183;DHT22;2105;52.300;9.182;2022-09-29T14:30:41;17.00;14.60
4183;DHT22;2105;52.300;9.182;2022-09-29T14:33:10;16.90;18.80
4183;DHT22;2105;52.300;9.182;2022-09-29T14:35:41;16.80;23.50
4183;DHT22;2105;52.300;9.182;2022-09-29T14:38:13;16.70;1.00
4183;DHT22;2105;52.300;9.182;2022-09-29T14:40:53;16.70;7.90
4183;DHT22;2105;52.300;9.182;2022-09-29T14:43:24;16.60;1.00
4183;DHT22;2105;52.300;9.182;2022-09-29T14:49:17;16.40;2.80
4183;DHT22;2105;52.300;9.182;2022-09-29T14:52:16;16.20;1.90
4183;DHT22;2105;52.300;9.182;2022-09-29T14:54:55;16.00;5.60
4183;DHT22;2105;52.300;9.182;2022-09-29T14:57:35;15.80;28.50
4183;DHT22;2105;52.300;9.182;2022-09-29T15:00:10;15.70;24.40
4183;DHT22;2105;52.300;9.182;2022-09-29T15:02:42;15.60;40.20
4183;DHT22;2105;52.300;9.182;2022-09-29T15:05:20;15.60;60.90
4183;DHT22;2105;52.300;9.182;2022-09-29T15:07:51;15.50;93.10
4183;DHT22;2105;52.300;9.182;2022-09-29T15:10:24;15.50;99.90
4183;DHT22;2105;52.300;9.182;2022-09-29T15:12:51;15.50;99.90
4183;DHT22;2105;52.300;9.182;2022-09-29T15:15:32;15.40;99.90
4183;DHT22;2105;52.300;9.182;2022-09-29T15:18:15;15.40;99.90
4183;DHT22;2105;52.300;9.182;2022-09-29T15:20:52;15.40;99.90
4183;DHT22;2105;52.300;9.182;2022-09-29T15:23:35;15.30;99.90
4183;DHT22;2105;52.300;9.182;2022-09-29T15:26:04;15.30;99.90
4183;DHT22;2105;52.300;9.182;2022-09-29T15:28:34;15.30;99.90
4183;DHT22;2105;52.300;9.182;2022-09-29T15:31:04;15.20;99.90
4183;DHT22;2105;52.300;9.182;2022-09-29T15:33:35;15.20;99.90
4183;DHT22;2105;52.300;9.182;2022-09-29T15:36:04;15.20;99.90
4183;DHT22;2105;52.300;9.182;2022-09-29T15:38:36;15.20;99.90
4183;DHT22;2105;52.300;9.182;2022-09-29T15:41:14;15.30;99.90
4183;DHT22;2105;52.300;9.182;2022-09-29T15:43:43;15.20;99.90
4183;DHT22;2105;52.300;9.182;2022-09-29T15:46:18;15.10;99.90
4183;DHT22;2105;52.300;9.182;2022-09-29T15:49:06;15.10;99.90
4183;DHT22;2105;52.300;9.182;2022-09-29T15:51:33;15.10;99.90
4183;DHT22;2105;52.300;9.182;2022-09-29T15:54:02;15.10;99.90
4183;DHT22;2105;52.300;9.182;2022-09-29T15:56:35;15.20;68.10
4183;DHT22;2105;52.300;9.182;2022-09-29T15:59:37;15.10;41.50
4183;DHT22;2105;52.300;9.182;2022-09-29T16:02:14;15.00;73.60
4183;DHT22;2105;52.300;9.182;2022-09-29T16:04:42;15.00;79.60
4183;DHT22;2105;52.300;9.182;2022-09-29T16:07:19;15.00;93.10
4183;DHT22;2105;52.300;9.182;2022-09-29T16:09:48;14.90;99.90
4183;DHT22;2105;52.300;9.182;2022-09-29T16:12:16;14.80;99.90
4183;DHT22;2105;52.300;9.182;2022-09-29T16:14:44;14.80;99.90
4183;DHT22;2105;52.300;9.182;2022-09-29T16:17:12;14.80;99.90
4183;DHT22;2105;52.300;9.182;2022-09-29T16:19:41;14.80;99.90
4183;DHT22;2105;52.300;9.182;2022-09-29T16:22:17;14.70;99.90
4183;DHT22;2105;52.300;9.182;2022-09-29T16:24:56;14.70;99.90
4183;DHT22;2105;52.300;9.182;2022-09-29T16:27:44;14.70;99.90
4183;DHT22;2105;52.300;9.182;2022-09-29T16:30:20;14.50;1.00
4183;DHT22;2105;52.300;9.182;2022-09-29T16:32:53;14.30;1.00
4183;DHT22;2105;52.300;9.182;2022-09-29T16:35:55;14.10;1.00
4183;DHT22;2105;52.300;9.182;2022-09-29T16:38:32;13.80;5.40
4183;DHT22;2105;52.300;9.182;2022-09-29T16:41:07;13.50;99.90
4183;DHT22;2105;52.300;9.182;2022-09-29T16:43:35;13.40;26.60
4183;DHT22;2105;52.300;9.182;2022-09-29T16:46:05;13.20;99.90
4183;DHT22;2105;52.300;9.182;2022-09-29T16:48:37;13.00;1.00
4183;DHT22;2105;52.300;9.182;2022-09-29T16:51:15;12.80;99.90
4183;DHT22;2105;52.300;9.182;2022-09-29T16:53:42;12.60;99.90
4183;DHT22;2105;52.300;9.182;2022-09-29T16:56:17;12.30;99.90
4183;DHT22;2105;52.300;9.182;2022-09-29T16:59:02;12.10;99.90